sensor_id;sensor_type;location;lat;lon;timestamp;P1;durP1;ratioP1;P2;durP2;ratioP2
12407;SDS011;6268;48.188;17.134;2023-05-07T00:00:05;1.80;;;1.70;;
12407;SDS011;6268;48.188;17.134;2023-05-07T00:02:36;1.80;;;1.70;;
12407;SDS011;6268;48.188;17.134;2023-05-07T00:05:07;1.90;;;1.80;;
12407;SDS011;6268;48.188;17.134;2023-05-07T00:07:37;1.60;;;1.48;;
12407;SDS011;6268;48.188;17.134;2023-05-07T00:10:06;1.83;;;1.70;;
12407;SDS011;6268;48.188;17.134;2023-05-07T00:12:36;2.15;;;2.05;;
12407;SDS011;6268;48.188;17.134;2023-05-07T00:15:05;2.20;;;2.08;;
12407;SDS011;6268;48.188;17.134;2023-05-07T00:17:36;2.03;;;1.85;;
12407;SDS011;6268;48.188;17.134;2023-05-07T00:20:07;2.38;;;2.17;;
12407;SDS011;6268;48.188;17.134;2023-05-07T00:22:37;2.20;;;2.10;;
12407;SDS011;6268;48.188;17.134;2023-05-07T00:25:06;2.83;;;2.17;;
12407;SDS011;6268;48.188;17.134;2023-05-07T00:27:36;2.03;;;1.92;;
12407;SDS011;6268;48.188;17.134;2023-05-07T00:30:06;2.53;;;2.33;;
12407;SDS011;6268;48.188;17.134;2023-05-07T00:32:36;2.33;;;2.10;;
12407;SDS011;6268;48.188;17.134;2023-05-07T00:35:08;3.30;;;2.17;;
12407;SDS011;6268;48.188;17.134;2023-05-07T00:37:37;1.85;;;1.80;;
12407;SDS011;6268;48.188;17.134;2023-05-07T00:40:06;2.00;;;1.90;;
12407;SDS011;6268;48.188;17.134;2023-05-07T00:42:36;2.17;;;1.70;;
12407;SDS011;6268;48.188;17.134;2023-05-07T00:45:06;1.80;;;1.70;;
12407;SDS011;6268;48.188;17.134;2023-05-07T00:47:37;2.03;;;1.92;;
12407;SDS011;6268;48.188;17.134;2023-05-07T00:50:09;2.50;;;2.30;;
12407;SDS011;6268;48.188;17.134;2023-05-07T00:52:39;4.93;;;4.45;;
12407;SDS011;6268;48.188;17.134;2023-05-07T00:55:09;3.00;;;2.72;;
12407;SDS011;6268;48.188;17.134;2023-05-07T00:57:39;3.30;;;2.70;;
12407;SDS011;6268;48.188;17.134;2023-05-07T01:00:09;3.95;;;2.65;;
12407;SDS011;6268;48.188;17.134;2023-05-07T01:02:40;2.70;;;2.50;;
12407;SDS011;6268;48.188;17.134;2023-05-07T01:05:12;3.40;;;3.20;;
12407;SDS011;6268;48.188;17.134;2023-05-07T01:07:44;3.40;;;3.10;;
12407;SDS011;6268;48.188;17.134;2023-05-07T01:10:15;4.07;;;3.67;;
12407;SDS011;6268;48.188;17.134;2023-05-07T01:12:45;3.65;;;3.40;;
12407;SDS011;6268;48.188;17.134;2023-05-07T01:15:16;3.15;;;2.75;;
12407;SDS011;6268;48.188;17.134;2023-05-07T01:17:45;3.03;;;2.80;;
12407;SDS011;6268;48.188;17.134;2023-05-07T01:20:15;3.10;;;2.90;;
12407;SDS011;6268;48.188;17.134;2023-05-07T01:22:47;3.22;;;3.03;;
12407;SDS011;6268;48.188;17.134;2023-05-07T01:25:17;3.28;;;2.80;;
12407;SDS011;6268;48.188;17.134;2023-05-07T01:27:46;3.45;;;3.25;;
12407;SDS011;6268;48.188;17.134;2023-05-07T01:30:15;3.22;;;3.03;;
12407;SDS011;6268;48.188;17.134;2023-05-07T01:32:49;4.95;;;3.80;;
12407;SDS011;6268;48.188;17.134;2023-05-07T01:35:28;3.30;;;3.03;;
12407;SDS011;6268;48.188;17.134;2023-05-07T01:38:03;3.70;;;3.45;;
12407;SDS011;6268;48.188;17.134;2023-05-07T01:40:33;3.55;;;3.20;;
12407;SDS011;6268;48.188;17.134;2023-05-07T01:43:02;3.80;;;3.30;;
12407;SDS011;6268;48.188;17.134;2023-05-07T01:45:31;3.50;;;3.20;;
12407;SDS011;6268;48.188;17.134;2023-05-07T01:48:02;3.70;;;3.50;;
12407;SDS011;6268;48.188;17.134;2023-05-07T01:50:32;3.88;;;3.47;;
12407;SDS011;6268;48.188;17.134;2023-05-07T01:53:04;3.65;;;3.10;;
12407;SDS011;6268;48.188;17.134;2023-05-07T01:55:32;3.95;;;3.40;;
12407;SDS011;6268;48.188;17.134;2023-05-07T01:58:03;3.90;;;3.60;;
12407;SDS011;6268;48.188;17.134;2023-05-07T02:00:32;4.15;;;3.85;;
12407;SDS011;6268;48.188;17.134;2023-05-07T02:03:01;3.65;;;3.40;;
12407;SDS011;6268;48.188;17.134;2023-05-07T02:05:30;4.20;;;3.05;;
12407;SDS011;6268;48.188;17.134;2023-05-07T02:07:59;3.88;;;3.58;;
12407;SDS011;6268;48.188;17.134;2023-05-07T02:10:29;3.47;;;3.17;;
12407;SDS011;6268;48.188;17.134;2023-05-07T02:12:57;3.40;;;3.20;;
12407;SDS011;6268;48.188;17.134;2023-05-07T02:15:28;3.40;;;3.20;;
12407;SDS011;6268;48.188;17.134;2023-05-07T02:18:00;3.33;;;3.10;;
12407;SDS011;6268;48.188;17.134;2023-05-07T02:20:31;4.93;;;3.42;;
12407;SDS011;6268;48.188;17.134;2023-05-07T02:23:00;4.72;;;4.18;;
12407;SDS011;6268;48.188;17.134;2023-05-07T02:25:30;2.97;;;2.83;;
12407;SDS011;6268;48.188;17.134;2023-05-07T02:27:59;3.53;;;3.22;;
12407;SDS011;6268;48.188;17.134;2023-05-07T02:30:28;5.38;;;3.97;;
12407;SDS011;6268;48.188;17.134;2023-05-07T02:32:56;2.90;;;2.72;;
12407;SDS011;6268;48.188;17.134;2023-05-07T02:35:25;4.35;;;3.95;;
12407;SDS011;6268;48.188;17.134;2023-05-07T02:37:54;5.05;;;3.42;;
12407;SDS011;6268;48.188;17.134;2023-05-07T02:40:23;4.30;;;4.00;;
12407;SDS011;6268;48.188;17.134;2023-05-07T02:42:53;4.03;;;3.63;;
12407;SDS011;6268;48.188;17.134;2023-05-07T02:45:21;3.75;;;3.45;;
12407;SDS011;6268;48.188;17.134;2023-05-07T02:47:50;4.18;;;3.80;;
12407;SDS011;6268;48.188;17.134;2023-05-07T02:50:19;4.65;;;4.30;;
12407;SDS011;6268;48.188;17.134;2023-05-07T02:52:48;3.95;;;3.72;;
12407;SDS011;6268;48.188;17.134;2023-05-07T02:55:16;4.05;;;3.75;;
12407;SDS011;6268;48.188;17.134;2023-05-07T02:57:45;4.07;;;3.67;;
12407;SDS011;6268;48.188;17.134;2023-05-07T03:00:16;5.65;;;3.78;;
12407;SDS011;6268;48.188;17.134;2023-05-07T03:02:47;3.83;;;3.63;;
12407;SDS011;6268;48.188;17.134;2023-05-07T03:05:16;4.32;;;3.40;;
12407;SDS011;6268;48.188;17.134;2023-05-07T03:07:44;3.72;;;3.28;;
12407;SDS011;6268;48.188;17.134;2023-05-07T03:10:14;5.40;;;3.78;;
12407;SDS011;6268;48.188;17.134;2023-05-07T03:12:42;3.58;;;3.38;;
12407;SDS011;6268;48.188;17.134;2023-05-07T03:15:11;3.90;;;3.70;;
12407;SDS011;6268;48.188;17.134;2023-05-07T03:17:42;4.32;;;3.97;;
12407;SDS011;6268;48.188;17.134;2023-05-07T03:20:11;3.90;;;3.60;;
12407;SDS011;6268;48.188;17.134;2023-05-07T03:22:40;3.67;;;3.47;;
12407;SDS011;6268;48.188;17.134;2023-05-07T03:25:09;4.20;;;3.90;;
12407;SDS011;6268;48.188;17.134;2023-05-07T03:27:38;3.58;;;3.35;;
12407;SDS011;6268;48.188;17.134;2023-05-07T03:30:08;3.80;;;3.50;;
12407;SDS011;6268;48.188;17.134;2023-05-07T03:32:39;5.10;;;3.47;;
12407;SDS011;6268;48.188;17.134;2023-05-07T03:35:09;3.90;;;3.60;;
12407;SDS011;6268;48.188;17.134;2023-05-07T03:37:38;3.40;;;3.20;;
12407;SDS011;6268;48.188;17.134;2023-05-07T03:40:08;3.67;;;3.28;;
12407;SDS011;6268;48.188;17.134;2023-05-07T03:42:39;3.67;;;3.47;;
12407;SDS011;6268;48.188;17.134;2023-05-07T03:45:08;4.80;;;3.40;;
12407;SDS011;6268;48.188;17.134;2023-05-07T03:47:37;3.50;;;3.30;;
12407;SDS011;6268;48.188;17.134;2023-05-07T03:50:06;3.42;;;3.13;;
12407;SDS011;6268;48.188;17.134;2023-05-07T03:52:38;3.55;;;3.30;;
12407;SDS011;6268;48.188;17.134;2023-05-07T03:55:07;4.55;;;3.30;;
12407;SDS011;6268;48.188;17.134;2023-05-07T03:57:37;3.58;;;3.13;;
12407;SDS011;6268;48.188;17.134;2023-05-07T04:00:06;3.65;;;3.00;;
12407;SDS011;6268;48.188;17.134;2023-05-07T04:02:36;4.15;;;3.75;;
12407;SDS011;6268;48.188;17.134;2023-05-07T04:05:05;5.57;;;3.38;;
12407;SDS011;6268;48.188;17.134;2023-05-07T04:07:35;3.65;;;3.35;;
12407;SDS011;6268;48.188;17.134;2023-05-07T04:10:05;3.95;;;3.75;;
12407;SDS011;6268;48.188;17.134;2023-05-07T04:12:35;4.25;;;3.95;;
12407;SDS011;6268;48.188;17.134;2023-05-07T04:15:04;4.40;;;4.10;;
12407;SDS011;6268;48.188;17.134;2023-05-07T04:17:34;6.32;;;5.80;;
12407;SDS011;6268;48.188;17.134;2023-05-07T04:20:03;6.18;;;5.68;;
12407;SDS011;6268;48.188;17.134;2023-05-07T04:22:34;4.85;;;4.55;;
12407;SDS011;6268;48.188;17.134;2023-05-07T04:25:03;4.80;;;4.40;;
12407;SDS011;6268;48.188;17.134;2023-05-07T04:27:35;4.75;;;4.35;;
12407;SDS011;6268;48.188;17.134;2023-05-07T04:30:05;5.10;;;4.70;;
12407;SDS011;6268;48.188;17.134;2023-05-07T04:32:35;5.10;;;4.70;;
12407;SDS011;6268;48.188;17.134;2023-05-07T04:35:04;5.20;;;4.80;;
12407;SDS011;6268;48.188;17.134;2023-05-07T04:37:34;5.53;;;5.15;;
12407;SDS011;6268;48.188;17.134;2023-05-07T04:40:04;5.00;;;4.60;;
12407;SDS011;6268;48.188;17.134;2023-05-07T04:42:36;8.05;;;6.53;;
12407;SDS011;6268;48.188;17.134;2023-05-07T04:45:05;5.88;;;5.38;;
12407;SDS011;6268;48.188;17.134;2023-05-07T04:47:36;7.88;;;6.20;;
12407;SDS011;6268;48.188;17.134;2023-05-07T04:50:06;5.55;;;5.05;;
12407;SDS011;6268;48.188;17.134;2023-05-07T04:52:36;5.32;;;4.20;;
12407;SDS011;6268;48.188;17.134;2023-05-07T04:55:07;11.90;;;10.68;;
12407;SDS011;6268;48.188;17.134;2023-05-07T04:57:36;5.35;;;4.85;;
12407;SDS011;6268;48.188;17.134;2023-05-07T05:00:07;5.82;;;5.28;;
12407;SDS011;6268;48.188;17.134;2023-05-07T05:02:37;6.00;;;5.45;;
12407;SDS011;6268;48.188;17.134;2023-05-07T05:05:06;7.35;;;6.63;;
12407;SDS011;6268;48.188;17.134;2023-05-07T05:07:35;6.35;;;5.45;;
12407;SDS011;6268;48.188;17.134;2023-05-07T05:10:05;7.13;;;6.40;;
12407;SDS011;6268;48.188;17.134;2023-05-07T05:12:36;6.30;;;5.80;;
12407;SDS011;6268;48.188;17.134;2023-05-07T05:15:05;7.18;;;6.53;;
12407;SDS011;6268;48.188;17.134;2023-05-07T05:17:36;6.10;;;5.60;;
12407;SDS011;6268;48.188;17.134;2023-05-07T05:20:06;5.25;;;4.85;;
12407;SDS011;6268;48.188;17.134;2023-05-07T05:22:37;5.47;;;5.03;;
12407;SDS011;6268;48.188;17.134;2023-05-07T05:25:08;4.93;;;4.47;;
12407;SDS011;6268;48.188;17.134;2023-05-07T05:27:37;6.40;;;5.80;;
12407;SDS011;6268;48.188;17.134;2023-05-07T05:30:06;5.72;;;4.75;;
12407;SDS011;6268;48.188;17.134;2023-05-07T05:32:36;4.88;;;4.57;;
12407;SDS011;6268;48.188;17.134;2023-05-07T05:35:05;6.05;;;5.45;;
12407;SDS011;6268;48.188;17.134;2023-05-07T05:37:35;7.05;;;6.00;;
12407;SDS011;6268;48.188;17.134;2023-05-07T05:40:05;5.97;;;4.80;;
12407;SDS011;6268;48.188;17.134;2023-05-07T05:42:36;5.88;;;5.47;;
12407;SDS011;6268;48.188;17.134;2023-05-07T05:45:05;4.55;;;4.07;;
12407;SDS011;6268;48.188;17.134;2023-05-07T05:47:36;4.18;;;3.80;;
12407;SDS011;6268;48.188;17.134;2023-05-07T05:50:06;4.72;;;4.32;;
12407;SDS011;6268;48.188;17.134;2023-05-07T05:52:36;4.70;;;4.40;;
12407;SDS011;6268;48.188;17.134;2023-05-07T05:55:05;5.35;;;4.85;;
12407;SDS011;6268;48.188;17.134;2023-05-07T05:57:36;5.30;;;4.90;;
12407;SDS011;6268;48.188;17.134;2023-05-07T06:00:06;5.65;;;5.07;;
12407;SDS011;6268;48.188;17.134;2023-05-07T06:02:37;4.20;;;3.90;;
12407;SDS011;6268;48.188;17.134;2023-05-07T06:05:06;3.60;;;3.40;;
12407;SDS011;6268;48.188;17.134;2023-05-07T06:07:36;3.17;;;2.97;;
12407;SDS011;6268;48.188;17.134;2023-05-07T06:10:05;2.83;;;2.63;;
12407;SDS011;6268;48.188;17.134;2023-05-07T06:12:36;2.50;;;2.40;;
12407;SDS011;6268;48.188;17.134;2023-05-07T06:15:06;3.33;;;2.53;;
12407;SDS011;6268;48.188;17.134;2023-05-07T06:17:35;3.63;;;2.60;;
12407;SDS011;6268;48.188;17.134;2023-05-07T06:20:04;4.53;;;3.13;;
12407;SDS011;6268;48.188;17.134;2023-05-07T06:22:35;2.90;;;2.70;;
12407;SDS011;6268;48.188;17.134;2023-05-07T06:25:04;3.65;;;3.20;;
12407;SDS011;6268;48.188;17.134;2023-05-07T06:27:35;3.42;;;3.22;;
12407;SDS011;6268;48.188;17.134;2023-05-07T06:30:06;3.22;;;3.03;;
12407;SDS011;6268;48.188;17.134;2023-05-07T06:32:36;3.17;;;2.97;;
12407;SDS011;6268;48.188;17.134;2023-05-07T06:35:05;3.78;;;3.47;;
12407;SDS011;6268;48.188;17.134;2023-05-07T06:37:35;3.35;;;3.15;;
12407;SDS011;6268;48.188;17.134;2023-05-07T06:40:05;3.17;;;2.97;;
12407;SDS011;6268;48.188;17.134;2023-05-07T06:42:37;3.90;;;3.55;;
12407;SDS011;6268;48.188;17.134;2023-05-07T06:45:06;4.85;;;4.55;;
12407;SDS011;6268;48.188;17.134;2023-05-07T06:47:36;5.70;;;5.35;;
12407;SDS011;6268;48.188;17.134;2023-05-07T06:50:06;4.80;;;4.50;;
12407;SDS011;6268;48.188;17.134;2023-05-07T06:52:36;5.57;;;5.28;;
12407;SDS011;6268;48.188;17.134;2023-05-07T06:55:06;5.82;;;5.45;;
12407;SDS011;6268;48.188;17.134;2023-05-07T06:57:38;5.75;;;5.30;;
12407;SDS011;6268;48.188;17.134;2023-05-07T07:00:08;5.85;;;5.35;;
12407;SDS011;6268;48.188;17.134;2023-05-07T07:02:38;6.65;;;5.28;;
12407;SDS011;6268;48.188;17.134;2023-05-07T07:05:07;6.47;;;5.97;;
12407;SDS011;6268;48.188;17.134;2023-05-07T07:07:36;5.53;;;5.07;;
12407;SDS011;6268;48.188;17.134;2023-05-07T07:10:06;5.97;;;5.50;;
12407;SDS011;6268;48.188;17.134;2023-05-07T07:12:36;5.97;;;5.57;;
12407;SDS011;6268;48.188;17.134;2023-05-07T07:15:06;7.68;;;7.03;;
12407;SDS011;6268;48.188;17.134;2023-05-07T07:17:36;8.23;;;7.53;;
12407;SDS011;6268;48.188;17.134;2023-05-07T07:20:05;6.45;;;5.90;;
12407;SDS011;6268;48.188;17.134;2023-05-07T07:22:37;8.20;;;7.50;;
12407;SDS011;6268;48.188;17.134;2023-05-07T07:25:06;8.63;;;7.93;;
12407;SDS011;6268;48.188;17.134;2023-05-07T07:27:38;8.52;;;7.75;;
12407;SDS011;6268;48.188;17.134;2023-05-07T07:30:07;8.45;;;7.75;;
12407;SDS011;6268;48.188;17.134;2023-05-07T07:32:37;7.90;;;7.28;;
12407;SDS011;6268;48.188;17.134;2023-05-07T07:35:06;8.10;;;7.45;;
12407;SDS011;6268;48.188;17.134;2023-05-07T07:37:36;7.15;;;6.65;;
12407;SDS011;6268;48.188;17.134;2023-05-07T07:40:05;8.15;;;7.45;;
12407;SDS011;6268;48.188;17.134;2023-05-07T07:42:36;7.32;;;6.50;;
12407;SDS011;6268;48.188;17.134;2023-05-07T07:45:07;6.88;;;6.20;;
12407;SDS011;6268;48.188;17.134;2023-05-07T07:47:36;6.97;;;6.38;;
12407;SDS011;6268;48.188;17.134;2023-05-07T07:50:06;8.80;;;6.30;;
12407;SDS011;6268;48.188;17.134;2023-05-07T07:52:36;7.45;;;6.75;;
12407;SDS011;6268;48.188;17.134;2023-05-07T07:55:05;7.75;;;7.05;;
12407;SDS011;6268;48.188;17.134;2023-05-07T07:57:35;8.45;;;7.40;;
12407;SDS011;6268;48.188;17.134;2023-05-07T08:00:06;8.57;;;7.78;;
12407;SDS011;6268;48.188;17.134;2023-05-07T08:02:36;7.25;;;6.55;;
12407;SDS011;6268;48.188;17.134;2023-05-07T08:05:05;6.85;;;6.15;;
12407;SDS011;6268;48.188;17.134;2023-05-07T08:07:35;6.55;;;5.95;;
12407;SDS011;6268;48.188;17.134;2023-05-07T08:10:04;5.90;;;5.35;;
12407;SDS011;6268;48.188;17.134;2023-05-07T08:12:33;8.38;;;7.57;;
12407;SDS011;6268;48.188;17.134;2023-05-07T08:15:02;6.95;;;6.45;;
12407;SDS011;6268;48.188;17.134;2023-05-07T08:17:33;7.80;;;7.15;;
12407;SDS011;6268;48.188;17.134;2023-05-07T08:20:02;7.10;;;6.60;;
12407;SDS011;6268;48.188;17.134;2023-05-07T08:22:33;6.65;;;5.95;;
12407;SDS011;6268;48.188;17.134;2023-05-07T08:25:03;6.88;;;6.13;;
12407;SDS011;6268;48.188;17.134;2023-05-07T08:27:33;6.43;;;5.93;;
12407;SDS011;6268;48.188;17.134;2023-05-07T08:30:02;8.75;;;7.95;;
12407;SDS011;6268;48.188;17.134;2023-05-07T08:32:33;6.55;;;5.95;;
12407;SDS011;6268;48.188;17.134;2023-05-07T08:35:01;6.25;;;5.75;;
12407;SDS011;6268;48.188;17.134;2023-05-07T08:37:31;7.53;;;6.93;;
12407;SDS011;6268;48.188;17.134;2023-05-07T08:39:59;6.60;;;6.10;;
12407;SDS011;6268;48.188;17.134;2023-05-07T08:42:28;7.25;;;6.68;;
12407;SDS011;6268;48.188;17.134;2023-05-07T08:45:03;7.07;;;6.57;;
12407;SDS011;6268;48.188;17.134;2023-05-07T08:47:40;6.03;;;5.63;;
12407;SDS011;6268;48.188;17.134;2023-05-07T08:50:12;8.10;;;7.50;;
12407;SDS011;6268;48.188;17.134;2023-05-07T08:52:41;10.02;;;8.98;;
12407;SDS011;6268;48.188;17.134;2023-05-07T08:55:10;8.00;;;7.10;;
12407;SDS011;6268;48.188;17.134;2023-05-07T08:57:41;8.02;;;7.32;;
12407;SDS011;6268;48.188;17.134;2023-05-07T09:00:12;6.80;;;6.10;;
12407;SDS011;6268;48.188;17.134;2023-05-07T09:02:43;8.63;;;7.88;;
12407;SDS011;6268;48.188;17.134;2023-05-07T09:05:12;7.68;;;6.95;;
12407;SDS011;6268;48.188;17.134;2023-05-07T09:07:41;8.05;;;7.35;;
12407;SDS011;6268;48.188;17.134;2023-05-07T09:10:09;6.68;;;6.18;;
12407;SDS011;6268;48.188;17.134;2023-05-07T09:12:39;6.40;;;6.00;;
12407;SDS011;6268;48.188;17.134;2023-05-07T09:15:08;7.28;;;6.72;;
12407;SDS011;6268;48.188;17.134;2023-05-07T09:17:39;6.50;;;5.95;;
12407;SDS011;6268;48.188;17.134;2023-05-07T09:20:10;5.80;;;5.50;;
12407;SDS011;6268;48.188;17.134;2023-05-07T09:22:39;4.70;;;4.40;;
12407;SDS011;6268;48.188;17.134;2023-05-07T09:25:09;5.15;;;4.85;;
12407;SDS011;6268;48.188;17.134;2023-05-07T09:27:39;7.72;;;7.22;;
12407;SDS011;6268;48.188;17.134;2023-05-07T09:30:10;6.18;;;5.72;;
12407;SDS011;6268;48.188;17.134;2023-05-07T09:32:39;6.75;;;6.25;;
12407;SDS011;6268;48.188;17.134;2023-05-07T09:35:15;5.97;;;5.57;;
12407;SDS011;6268;48.188;17.134;2023-05-07T09:37:45;6.15;;;5.75;;
12407;SDS011;6268;48.188;17.134;2023-05-07T09:40:20;5.55;;;5.15;;
12407;SDS011;6268;48.188;17.134;2023-05-07T09:42:50;6.47;;;5.97;;
12407;SDS011;6268;48.188;17.134;2023-05-07T09:45:22;5.03;;;4.57;;
12407;SDS011;6268;48.188;17.134;2023-05-07T09:47:53;6.20;;;5.60;;
12407;SDS011;6268;48.188;17.134;2023-05-07T09:50:26;4.90;;;4.65;;
12407;SDS011;6268;48.188;17.134;2023-05-07T09:52:57;6.70;;;6.30;;
12407;SDS011;6268;48.188;17.134;2023-05-07T09:55:26;6.20;;;5.82;;
12407;SDS011;6268;48.188;17.134;2023-05-07T09:57:55;5.70;;;5.20;;
12407;SDS011;6268;48.188;17.134;2023-05-07T10:00:29;5.20;;;4.80;;
12407;SDS011;6268;48.188;17.134;2023-05-07T10:02:59;6.68;;;5.90;;
12407;SDS011;6268;48.188;17.134;2023-05-07T10:05:32;5.60;;;5.15;;
12407;SDS011;6268;48.188;17.134;2023-05-07T10:08:01;6.35;;;5.90;;
12407;SDS011;6268;48.188;17.134;2023-05-07T10:10:32;5.05;;;4.75;;
12407;SDS011;6268;48.188;17.134;2023-05-07T10:13:01;6.10;;;5.70;;
12407;SDS011;6268;48.188;17.134;2023-05-07T10:15:32;5.80;;;5.40;;
12407;SDS011;6268;48.188;17.134;2023-05-07T10:18:03;5.72;;;5.22;;
12407;SDS011;6268;48.188;17.134;2023-05-07T10:20:41;4.78;;;4.38;;
12407;SDS011;6268;48.188;17.134;2023-05-07T10:23:14;5.57;;;5.07;;
12407;SDS011;6268;48.188;17.134;2023-05-07T10:25:51;6.22;;;5.63;;
12407;SDS011;6268;48.188;17.134;2023-05-07T10:28:26;5.90;;;5.50;;
12407;SDS011;6268;48.188;17.134;2023-05-07T10:31:02;5.07;;;4.57;;
12407;SDS011;6268;48.188;17.134;2023-05-07T10:33:51;5.80;;;5.40;;
12407;SDS011;6268;48.188;17.134;2023-05-07T10:36:25;5.15;;;4.85;;
12407;SDS011;6268;48.188;17.134;2023-05-07T10:38:55;5.20;;;4.90;;
12407;SDS011;6268;48.188;17.134;2023-05-07T10:41:23;5.50;;;5.10;;
12407;SDS011;6268;48.188;17.134;2023-05-07T10:43:52;4.68;;;4.47;;
12407;SDS011;6268;48.188;17.134;2023-05-07T10:46:22;5.13;;;4.57;;
12407;SDS011;6268;48.188;17.134;2023-05-07T10:49:06;4.25;;;3.95;;
12407;SDS011;6268;48.188;17.134;2023-05-07T10:51:40;4.47;;;4.18;;
12407;SDS011;6268;48.188;17.134;2023-05-07T10:54:18;4.43;;;4.22;;
12407;SDS011;6268;48.188;17.134;2023-05-07T10:56:51;4.75;;;4.35;;
12407;SDS011;6268;48.188;17.134;2023-05-07T10:59:35;4.55;;;4.10;;
12407;SDS011;6268;48.188;17.134;2023-05-07T11:02:09;4.32;;;3.92;;
12407;SDS011;6268;48.188;17.134;2023-05-07T11:04:40;4.82;;;4.50;;
12407;SDS011;6268;48.188;17.134;2023-05-07T11:07:30;5.25;;;4.95;;
12407;SDS011;6268;48.188;17.134;2023-05-07T11:09:59;5.15;;;4.22;;
12407;SDS011;6268;48.188;17.134;2023-05-07T11:12:51;4.80;;;4.22;;
12407;SDS011;6268;48.188;17.134;2023-05-07T11:15:34;4.28;;;3.88;;
12407;SDS011;6268;48.188;17.134;2023-05-07T11:18:13;3.38;;;3.17;;
12407;SDS011;6268;48.188;17.134;2023-05-07T11:20:44;4.10;;;3.80;;
12407;SDS011;6268;48.188;17.134;2023-05-07T11:26:28;4.80;;;4.13;;
12407;SDS011;6268;48.188;17.134;2023-05-07T11:28:58;3.95;;;3.65;;
12407;SDS011;6268;48.188;17.134;2023-05-07T11:31:28;2.95;;;2.70;;
12407;SDS011;6268;48.188;17.134;2023-05-07T11:33:57;6.32;;;5.00;;
12407;SDS011;6268;48.188;17.134;2023-05-07T11:36:32;3.13;;;2.90;;
12407;SDS011;6268;48.188;17.134;2023-05-07T11:39:02;2.88;;;2.67;;
12407;SDS011;6268;48.188;17.134;2023-05-07T11:41:35;3.53;;;3.33;;
12407;SDS011;6268;48.188;17.134;2023-05-07T11:44:04;3.42;;;3.20;;
12407;SDS011;6268;48.188;17.134;2023-05-07T11:46:33;3.55;;;3.35;;
12407;SDS011;6268;48.188;17.134;2023-05-07T11:49:02;3.95;;;2.60;;
12407;SDS011;6268;48.188;17.134;2023-05-07T11:51:30;4.15;;;3.30;;
12407;SDS011;6268;48.188;17.134;2023-05-07T11:53:59;3.00;;;2.80;;
12407;SDS011;6268;48.188;17.134;2023-05-07T11:56:33;3.20;;;3.00;;
12407;SDS011;6268;48.188;17.134;2023-05-07T11:59:03;2.58;;;2.42;;
12407;SDS011;6268;48.188;17.134;2023-05-07T12:01:32;2.90;;;2.70;;
12407;SDS011;6268;48.188;17.134;2023-05-07T12:04:04;6.55;;;5.95;;
12407;SDS011;6268;48.188;17.134;2023-05-07T12:06:35;3.40;;;3.13;;
12407;SDS011;6268;48.188;17.134;2023-05-07T12:09:05;5.38;;;4.05;;
12407;SDS011;6268;48.188;17.134;2023-05-07T12:11:39;4.40;;;4.05;;
12407;SDS011;6268;48.188;17.134;2023-05-07T12:14:08;3.15;;;2.95;;
12407;SDS011;6268;48.188;17.134;2023-05-07T12:16:38;2.45;;;2.35;;
12407;SDS011;6268;48.188;17.134;2023-05-07T12:19:08;3.00;;;2.78;;
12407;SDS011;6268;48.188;17.134;2023-05-07T12:21:41;3.47;;;3.20;;
12407;SDS011;6268;48.188;17.134;2023-05-07T12:24:10;3.20;;;2.97;;
12407;SDS011;6268;48.188;17.134;2023-05-07T12:26:40;3.10;;;2.90;;
12407;SDS011;6268;48.188;17.134;2023-05-07T12:29:09;2.80;;;2.55;;
12407;SDS011;6268;48.188;17.134;2023-05-07T12:31:40;2.65;;;2.55;;
12407;SDS011;6268;48.188;17.134;2023-05-07T12:34:10;3.10;;;2.50;;
12407;SDS011;6268;48.188;17.134;2023-05-07T12:36:39;4.15;;;2.70;;
12407;SDS011;6268;48.188;17.134;2023-05-07T12:39:08;3.75;;;3.45;;
12407;SDS011;6268;48.188;17.134;2023-05-07T12:44:25;3.78;;;2.50;;
12407;SDS011;6268;48.188;17.134;2023-05-07T12:46:58;4.55;;;3.00;;
12407;SDS011;6268;48.188;17.134;2023-05-07T12:49:30;2.42;;;2.20;;
12407;SDS011;6268;48.188;17.134;2023-05-07T12:51:59;2.80;;;2.60;;
12407;SDS011;6268;48.188;17.134;2023-05-07T12:54:28;2.38;;;2.22;;
12407;SDS011;6268;48.188;17.134;2023-05-07T12:57:02;2.65;;;2.40;;
12407;SDS011;6268;48.188;17.134;2023-05-07T12:59:33;2.67;;;2.47;;
12407;SDS011;6268;48.188;17.134;2023-05-07T13:02:04;2.80;;;2.60;;
12407;SDS011;6268;48.188;17.134;2023-05-07T13:04:34;2.53;;;2.25;;
12407;SDS011;6268;48.188;17.134;2023-05-07T13:07:03;2.28;;;2.00;;
12407;SDS011;6268;48.188;17.134;2023-05-07T13:09:32;4.72;;;3.90;;
12407;SDS011;6268;48.188;17.134;2023-05-07T13:12:00;3.33;;;3.13;;
12407;SDS011;6268;48.188;17.134;2023-05-07T13:14:31;2.08;;;1.88;;
12407;SDS011;6268;48.188;17.134;2023-05-07T13:17:00;2.00;;;1.90;;
12407;SDS011;6268;48.188;17.134;2023-05-07T13:19:28;2.05;;;1.95;;
12407;SDS011;6268;48.188;17.134;2023-05-07T13:21:57;2.50;;;2.30;;
12407;SDS011;6268;48.188;17.134;2023-05-07T13:24:26;2.40;;;2.30;;
12407;SDS011;6268;48.188;17.134;2023-05-07T13:26:56;2.50;;;2.30;;
12407;SDS011;6268;48.188;17.134;2023-05-07T13:29:26;2.00;;;1.90;;
12407;SDS011;6268;48.188;17.134;2023-05-07T13:31:57;2.28;;;2.10;;
12407;SDS011;6268;48.188;17.134;2023-05-07T13:34:25;2.25;;;2.15;;
12407;SDS011;6268;48.188;17.134;2023-05-07T13:36:55;2.35;;;2.25;;
12407;SDS011;6268;48.188;17.134;2023-05-07T13:39:24;2.47;;;2.28;;
12407;SDS011;6268;48.188;17.134;2023-05-07T13:41:53;2.30;;;2.20;;
12407;SDS011;6268;48.188;17.134;2023-05-07T13:44:22;2.78;;;2.58;;
12407;SDS011;6268;48.188;17.134;2023-05-07T13:46:52;2.22;;;2.13;;
12407;SDS011;6268;48.188;17.134;2023-05-07T13:49:21;2.30;;;2.20;;
12407;SDS011;6268;48.188;17.134;2023-05-07T13:51:50;3.47;;;3.17;;
12407;SDS011;6268;48.188;17.134;2023-05-07T13:54:19;3.30;;;3.10;;
12407;SDS011;6268;48.188;17.134;2023-05-07T13:56:47;3.00;;;2.50;;
12407;SDS011;6268;48.188;17.134;2023-05-07T13:59:16;10.60;;;6.05;;
12407;SDS011;6268;48.188;17.134;2023-05-07T14:01:45;3.83;;;3.30;;
12407;SDS011;6268;48.188;17.134;2023-05-07T14:04:16;4.15;;;3.75;;
12407;SDS011;6268;48.188;17.134;2023-05-07T14:06:44;4.20;;;3.70;;
12407;SDS011;6268;48.188;17.134;2023-05-07T14:09:32;3.40;;;3.10;;
12407;SDS011;6268;48.188;17.134;2023-05-07T14:12:01;3.22;;;2.75;;
12407;SDS011;6268;48.188;17.134;2023-05-07T14:14:29;4.13;;;3.22;;
12407;SDS011;6268;48.188;17.134;2023-05-07T14:16:58;4.88;;;3.20;;
12407;SDS011;6268;48.188;17.134;2023-05-07T14:19:28;6.15;;;3.63;;
12407;SDS011;6268;48.188;17.134;2023-05-07T14:21:58;4.75;;;2.90;;
12407;SDS011;6268;48.188;17.134;2023-05-07T14:24:26;23.27;;;13.40;;
12407;SDS011;6268;48.188;17.134;2023-05-07T14:27:04;2.63;;;2.47;;
12407;SDS011;6268;48.188;17.134;2023-05-07T14:29:33;3.60;;;3.40;;
12407;SDS011;6268;48.188;17.134;2023-05-07T14:32:02;3.33;;;3.03;;
12407;SDS011;6268;48.188;17.134;2023-05-07T14:34:33;3.13;;;2.88;;
12407;SDS011;6268;48.188;17.134;2023-05-07T14:37:02;5.82;;;5.32;;
12407;SDS011;6268;48.188;17.134;2023-05-07T14:39:31;3.70;;;3.50;;
12407;SDS011;6268;48.188;17.134;2023-05-07T14:42:00;2.92;;;2.78;;
12407;SDS011;6268;48.188;17.134;2023-05-07T14:44:29;2.60;;;2.50;;
12407;SDS011;6268;48.188;17.134;2023-05-07T14:46:57;5.07;;;4.68;;
12407;SDS011;6268;48.188;17.134;2023-05-07T14:49:27;4.68;;;3.90;;
12407;SDS011;6268;48.188;17.134;2023-05-07T14:51:58;2.88;;;2.70;;
12407;SDS011;6268;48.188;17.134;2023-05-07T14:54:27;2.47;;;2.38;;
12407;SDS011;6268;48.188;17.134;2023-05-07T14:56:56;2.70;;;2.55;;
12407;SDS011;6268;48.188;17.134;2023-05-07T14:59:25;2.42;;;2.33;;
12407;SDS011;6268;48.188;17.134;2023-05-07T15:01:54;2.53;;;2.33;;
12407;SDS011;6268;48.188;17.134;2023-05-07T15:04:23;2.50;;;2.40;;
12407;SDS011;6268;48.188;17.134;2023-05-07T15:06:52;2.67;;;2.47;;
12407;SDS011;6268;48.188;17.134;2023-05-07T15:09:24;2.50;;;2.40;;
12407;SDS011;6268;48.188;17.134;2023-05-07T15:11:52;6.60;;;2.83;;